Waterloo, Nebraska
Current Conditions -  °F | °C
As of 6:35 AM on Sunday 21 Dec 2014 (Local Time) from KMLE Reporting Station
Overcast Overcast  
Wind Chill: 34°   Ceiling: 900
Heat Index: 39°   Visibility: 7mi
Dew Point: 37°   Wind: 7mph
Humidity: 91%   Direction: 150°SSE
Pressure: 29.91"   Gusts: NA
Location:  41.29°N, 96.29°W
Report Text: KMLE 211235Z AUTO 15006KT 7SM OVC009 04/03 A2991 RMK AO2 T00400026
Loading
Personal Weather Stations






























Interactive Weather Map New forecast layout! Learn more

10-Day Weather Forecast

Advertisements
Track Severe Weather on mobile